Time;durP1;ratioP1;P1;durP2;ratioP2;P2;SDS_P1;SDS_P2;PMS_P1;PMS_P2;Temp;Humidity;BMP_temperature;BMP_pressure;BME280_temperature;BME280_humidity;BME280_pressure;Samples;Min_cycle;Max_cycle;Signal;HPM_P1;HPM_P2
2023/01/05 00:01:21;;;;;;;0.70;0.70;;;;;;;9.74;100.00;98926.06;4167003;28;20216;-54
2023/01/05 00:03:23;;;;;;;0.63;0.63;;;;;;;9.77;100.00;98914.66;4168357;28;20318;-52
2023/01/05 00:05:25;;;;;;;0.60;0.60;;;;;;;9.76;100.00;98919.28;4173340;28;20763;-53
2023/01/05 00:07:26;;;;;;;0.60;0.60;;;;;;;9.77;100.00;98915.50;4149602;28;20209;-54
2023/01/05 00:09:28;;;;;;;0.70;0.70;;;;;;;9.76;100.00;98910.28;4165919;28;20248;-52
2023/01/05 00:23:30;;;;;;;0.70;0.70;;;;;;;9.95;100.00;98890.78;4119437;28;20260;-53
2023/01/05 00:25:36;;;;;;;0.70;0.70;;;;;;;9.92;100.00;98898.63;4147751;28;20243;-52
2023/01/05 00:27:42;;;;;;;0.60;0.60;;;;;;;9.96;100.00;98891.63;4182702;28;20203;-52
2023/01/05 00:29:43;;;;;;;0.60;0.60;;;;;;;10.00;100.00;98898.28;4169643;28;20232;-52
2023/01/05 00:31:48;;;;;;;0.68;0.68;;;;;;;9.93;100.00;98890.19;4152161;28;20247;-52
2023/01/05 00:33:49;;;;;;;0.60;0.60;;;;;;;9.95;100.00;98884.50;4169146;28;20220;-54
2023/01/05 00:35:51;;;;;;;0.55;0.55;;;;;;;9.96;100.00;98886.16;4168463;28;20295;-52
2023/01/05 00:37:53;;;;;;;0.63;0.63;;;;;;;9.91;100.00;98872.38;4171265;28;20216;-53
2023/01/05 00:39:55;;;;;;;0.68;0.68;;;;;;;9.92;100.00;98874.88;4174842;28;20366;-54
2023/01/05 00:41:57;;;;;;;0.55;0.55;;;;;;;9.93;100.00;98872.94;4185025;28;20264;-53
2023/01/05 00:43:58;;;;;;;0.60;0.60;;;;;;;9.96;100.00;98877.97;4171584;28;20874;-52
2023/01/05 00:46:00;;;;;;;0.70;0.70;;;;;;;10.08;100.00;98870.63;4168094;28;20763;-53
2023/01/05 00:48:02;;;;;;;0.60;0.60;;;;;;;10.13;100.00;98871.56;4169212;28;20212;-54
2023/01/05 00:50:05;;;;;;;0.60;0.60;;;;;;;10.12;100.00;98858.13;4168582;28;20232;-51
2023/01/05 00:52:06;;;;;;;0.70;0.70;;;;;;;10.15;100.00;98846.72;4170098;28;20216;-54
2023/01/05 00:54:08;;;;;;;0.95;0.95;;;;;;;10.22;100.00;98841.97;4169718;28;20285;-52
2023/01/05 00:56:10;;;;;;;0.70;0.70;;;;;;;10.26;100.00;98843.13;4171519;28;20236;-52
2023/01/05 00:58:11;;;;;;;0.60;0.60;;;;;;;10.30;100.00;98827.91;4169614;28;20208;-53
2023/01/05 01:00:16;;;;;;;0.70;0.70;;;;;;;10.40;100.00;98844.53;4168134;28;20328;-53
2023/01/05 01:02:18;;;;;;;0.55;0.55;;;;;;;10.44;100.00;98845.72;4167480;28;20212;-53
2023/01/05 01:04:21;;;;;;;0.85;0.85;;;;;;;10.47;100.00;98835.13;4167630;28;20236;-53
2023/01/05 01:06:23;;;;;;;0.65;0.65;;;;;;;10.53;100.00;98825.97;4173093;28;20204;-52
2023/01/05 01:08:24;;;;;;;0.85;0.85;;;;;;;10.54;100.00;98835.81;4168616;28;20894;-52
2023/01/05 01:10:26;;;;;;;0.60;0.60;;;;;;;10.62;100.00;98845.56;4149146;28;20232;-55
2023/01/05 01:12:28;;;;;;;0.63;0.63;;;;;;;10.66;100.00;98833.06;4167397;28;20231;-52
2023/01/05 01:14:30;;;;;;;0.65;0.65;;;;;;;10.65;100.00;98831.38;4169053;28;20648;-51
2023/01/05 01:16:32;;;;;;;0.70;0.70;;;;;;;10.66;100.00;98844.00;4168523;28;20209;-53
2023/01/05 01:18:34;;;;;;;0.70;0.70;;;;;;;10.64;100.00;98846.16;4169690;28;20209;-52
2023/01/05 01:20:36;;;;;;;0.63;0.63;;;;;;;10.64;100.00;98849.75;4169820;28;20618;-52
2023/01/05 01:22:38;;;;;;;0.50;0.50;;;;;;;10.68;100.00;98848.16;4167549;28;20305;-54
2023/01/05 01:24:40;;;;;;;0.52;0.52;;;;;;;10.72;100.00;98854.81;4168199;28;21179;-52
2023/01/05 01:26:42;;;;;;;0.80;0.80;;;;;;;10.73;100.00;98848.28;4170956;28;20201;-51
2023/01/05 01:28:46;;;;;;;0.60;0.60;;;;;;;10.71;100.00;98857.78;4174190;28;20296;-53
2023/01/05 01:30:48;;;;;;;1.55;0.80;;;;;;;10.73;100.00;98844.69;4171197;28;20255;-53
2023/01/05 01:32:50;;;;;;;0.70;0.70;;;;;;;10.77;100.00;98852.19;4168455;28;20212;-52
2023/01/05 01:34:53;;;;;;;0.70;0.70;;;;;;;10.78;100.00;98849.19;4172607;28;20283;-54
2023/01/05 01:36:55;;;;;;;0.60;0.60;;;;;;;10.77;100.00;98845.88;4169572;28;20216;-54
2023/01/05 01:38:57;;;;;;;0.50;0.50;;;;;;;10.78;100.00;98849.19;4165582;28;20211;-52
2023/01/05 01:40:59;;;;;;;0.50;0.50;;;;;;;10.76;100.00;98857.91;4182806;28;20231;-52
2023/01/05 01:43:01;;;;;;;0.50;0.50;;;;;;;10.77;100.00;98855.75;4166535;28;20758;-52
2023/01/05 01:45:18;;;;;;;0.70;0.70;;;;;;;10.77;100.00;98852.19;4168752;28;20286;-52
2023/01/05 01:47:34;;;;;;;0.60;0.60;;;;;;;10.81;100.00;98866.22;4169620;28;20489;-53
2023/01/05 01:49:35;;;;;;;0.52;0.52;;;;;;;10.78;100.00;98860.16;4170286;28;20291;-54
2023/01/05 01:51:44;;;;;;;0.70;0.70;;;;;;;10.81;100.00;98860.75;4172384;28;20247;-51
2023/01/05 01:53:49;;;;;;;1.00;1.00;;;;;;;10.78;100.00;98873.81;4169493;28;20230;-52
2023/01/05 01:55:53;;;;;;;0.60;0.60;;;;;;;10.76;100.00;98871.59;4171560;28;20200;-52
2023/01/05 01:57:55;;;;;;;0.70;0.70;;;;;;;10.77;100.00;98874.09;4174427;28;20208;-53
2023/01/05 01:59:58;;;;;;;0.60;0.60;;;;;;;10.76;100.00;98874.31;4168408;28;20259;-52
2023/01/05 02:02:00;;;;;;;0.50;0.50;;;;;;;10.77;100.00;98878.72;4182804;28;20306;-52
2023/01/05 02:04:03;;;;;;;0.90;0.90;;;;;;;10.76;100.00;98863.38;4185715;28;20692;-52
2023/01/05 02:06:05;;;;;;;0.70;0.70;;;;;;;10.73;100.00;98872.06;4168012;28;20238;-52
2023/01/05 02:08:14;;;;;;;0.50;0.50;;;;;;;10.72;100.00;98870.41;4169028;28;20239;-52
2023/01/05 02:10:18;;;;;;;0.43;0.43;;;;;;;10.71;100.00;98874.22;4178336;28;20650;-53
2023/01/05 02:12:39;;;;;;;0.52;0.52;;;;;;;10.67;100.00;98867.59;4172498;28;20210;-54
2023/01/05 02:14:52;;;;;;;0.70;0.70;;;;;;;10.66;100.00;98871.38;4170382;28;20241;-54
2023/01/05 02:17:25;;;;;;;0.93;0.60;;;;;;;10.71;100.00;98877.78;4183067;28;20291;-52
2023/01/05 02:19:45;;;;;;;0.60;0.60;;;;;;;10.71;100.00;98874.22;4180892;28;20735;-54
2023/01/05 02:22:02;;;;;;;0.50;0.50;;;;;;;10.71;100.00;98868.75;4170456;28;20609;-53
2023/01/05 02:24:15;;;;;;;0.70;0.70;;;;;;;10.70;100.00;98875.28;4183980;28;20215;-54
2023/01/05 02:26:20;;;;;;;0.77;0.77;;;;;;;10.73;100.00;98866.59;4172117;28;20310;-54
2023/01/05 02:28:47;;;;;;;0.68;0.68;;;;;;;10.70;100.00;98873.41;4169538;28;20259;-53
2023/01/05 02:31:03;;;;;;;0.63;0.63;;;;;;;10.73;100.00;98885.75;4185413;28;20341;-53
2023/01/05 02:33:14;;;;;;;0.93;0.90;;;;;;;10.72;100.00;98895.03;4169876;28;20261;-53
2023/01/05 02:35:39;;;;;;;0.70;0.70;;;;;;;10.66;100.00;98893.25;4166248;28;20266;-54
2023/01/05 02:37:46;;;;;;;0.60;0.60;;;;;;;10.69;100.00;98888.13;4171908;28;20704;-52
2023/01/05 02:39:58;;;;;;;0.63;0.60;;;;;;;10.70;100.00;98905.41;4186579;28;20250;-53
2023/01/05 02:42:04;;;;;;;0.75;0.75;;;;;;;10.69;100.00;98892.78;4170104;28;20310;-52
2023/01/05 02:44:09;;;;;;;1.33;0.95;;;;;;;10.69;100.00;98906.47;4172310;28;20691;-53
2023/01/05 02:46:11;;;;;;;1.00;0.93;;;;;;;10.64;100.00;98917.31;4166730;28;20751;-52
2023/01/05 02:48:13;;;;;;;0.50;0.50;;;;;;;10.60;100.00;98910.63;4171853;28;20555;-53
2023/01/05 02:50:20;;;;;;;0.63;0.50;;;;;;;10.58;100.00;98907.31;4170916;28;20224;-53
2023/01/05 02:52:23;;;;;;;0.70;0.70;;;;;;;10.53;100.00;98899.00;4175424;28;20310;-53
2023/01/05 02:54:37;;;;;;;1.63;0.70;;;;;;;10.50;100.00;98904.97;4170308;28;20204;-54
2023/01/05 02:56:43;;;;;;;0.77;0.77;;;;;;;10.43;100.00;98904.25;4171400;28;21236;-54
2023/01/05 02:58:55;;;;;;;3.53;0.80;;;;;;;10.44;100.00;98900.44;4185013;28;20204;-53
2023/01/05 03:01:10;;;;;;;0.75;0.75;;;;;;;10.38;100.00;98906.88;4169569;28;20897;-53
2023/01/05 03:03:19;;;;;;;2.10;1.17;;;;;;;10.30;100.00;98905.34;4164677;28;20259;-55
2023/01/05 03:05:30;;;;;;;0.85;0.63;;;;;;;10.24;100.00;98919.13;4174690;28;20656;-54
2023/01/05 03:07:34;;;;;;;7.00;1.92;;;;;;;10.22;100.00;98929.47;4188851;28;20661;-52
2023/01/05 03:09:37;;;;;;;1.27;0.80;;;;;;;10.19;100.00;98924.47;4171164;28;20874;-54
2023/01/05 03:14:25;;;;;;;1.42;0.80;;;;;;;10.14;100.00;98927.94;4172119;28;20266;-52
2023/01/05 03:16:30;;;;;;;0.75;0.75;;;;;;;10.03;100.00;98919.69;4171421;28;20239;-54
2023/01/05 03:19:34;;;;;;;2.40;1.20;;;;;;;10.00;100.00;98921.00;4172313;28;20208;-54
2023/01/05 03:20:56;;;;;;;1.42;1.20;;;;;;;10.01;100.00;98927.31;4170492;28;20228;-55
2023/01/05 03:37:17;;;;;;;3.58;1.67;;;;;;;9.66;100.00;98956.44;4170622;28;20215;-52
2023/01/05 03:39:19;;;;;;;2.05;1.00;;;;;;;9.63;100.00;98955.00;4170503;28;20211;-54
2023/01/05 03:41:22;;;;;;;2.97;1.27;;;;;;;9.59;100.00;98963.91;4169557;28;20231;-54
2023/01/05 03:43:24;;;;;;;1.50;1.30;;;;;;;9.65;100.00;98960.25;4169393;28;20299;-54
2023/01/05 03:45:32;;;;;;;2.45;1.63;;;;;;;9.64;100.00;98969.53;4165819;28;20251;-54
2023/01/05 03:47:33;;;;;;;1.40;1.10;;;;;;;9.54;100.00;98948.22;4181227;28;20230;-53
2023/01/05 03:49:36;;;;;;;3.20;1.73;;;;;;;9.63;100.00;98962.41;4169021;28;20235;-54
2023/01/05 03:51:37;;;;;;;5.30;1.23;;;;;;;9.49;100.00;98960.94;4168315;28;20227;-53
2023/01/05 03:53:43;;;;;;;5.25;1.90;;;;;;;9.46;100.00;98966.84;4170701;28;20654;-53
2023/01/05 03:55:45;;;;;;;6.47;2.03;;;;;;;9.45;100.00;98976.09;4173501;28;20287;-53
2023/01/05 03:57:46;;;;;;;8.10;1.48;;;;;;;9.46;100.00;98978.59;4170600;28;20212;-52
2023/01/05 03:59:48;;;;;;;7.70;1.67;;;;;;;9.42;100.00;98982.84;4169796;28;20342;-53
2023/01/05 04:01:50;;;;;;;6.30;2.42;;;;;;;9.43;100.00;98978.25;4168782;28;20315;-52
2023/01/05 04:03:52;;;;;;;5.47;1.85;;;;;;;9.34;100.00;98985.09;4168585;28;20208;-53
2023/01/05 04:05:54;;;;;;;6.63;1.77;;;;;;;9.32;100.00;98992.66;4171158;28;20231;-52
2023/01/05 04:07:55;;;;;;;7.78;1.50;;;;;;;9.22;100.00;98981.47;4168286;28;20999;-54
2023/01/05 04:09:57;;;;;;;3.67;1.65;;;;;;;9.27;100.00;98978.88;4174123;28;20746;-54
2023/01/05 04:11:59;;;;;;;9.63;3.42;;;;;;;9.21;100.00;98996.19;4169845;28;20361;-52
2023/01/05 04:14:01;;;;;;;10.00;2.60;;;;;;;9.32;100.00;98984.47;4174156;28;20290;-53
2023/01/05 04:16:03;;;;;;;5.25;2.35;;;;;;;9.24;100.00;98984.78;4156309;28;20368;-52
2023/01/05 04:18:05;;;;;;;2.58;2.05;;;;;;;9.24;100.00;98977.44;4170801;28;20339;-54
2023/01/05 04:20:07;;;;;;;3.33;1.60;;;;;;;9.25;100.00;98986.47;4173880;28;20598;-52
2023/01/05 04:22:08;;;;;;;3.88;2.03;;;;;;;9.28;100.00;98980.56;4171251;28;20255;-53
2023/01/05 04:24:11;;;;;;;7.25;1.75;;;;;;;9.25;100.00;98986.47;4172624;28;20995;-52
2023/01/05 04:26:12;;;;;;;7.45;1.88;;;;;;;9.28;100.00;98977.81;4172129;28;20616;-54
2023/01/05 04:28:14;;;;;;;7.60;1.42;;;;;;;9.31;100.00;98988.28;4185930;28;20214;-53
2023/01/05 04:30:16;;;;;;;2.50;1.23;;;;;;;9.31;100.00;98991.00;4169154;28;20650;-55
2023/01/05 04:32:18;;;;;;;9.93;1.90;;;;;;;9.30;100.00;98990.19;4170862;28;20688;-53
2023/01/05 04:34:20;;;;;;;5.10;3.10;;;;;;;9.36;100.00;98988.41;4157952;28;20299;-52
2023/01/05 04:36:21;;;;;;;2.45;1.00;;;;;;;9.36;100.00;99004.81;4170292;28;20197;-54
2023/01/05 04:38:23;;;;;;;6.15;1.95;;;;;;;9.37;100.00;98995.53;4169149;28;20648;-54
2023/01/05 04:40:25;;;;;;;2.80;1.08;;;;;;;9.32;100.00;99004.44;4170184;28;20331;-55
2023/01/05 04:42:26;;;;;;;3.45;2.85;;;;;;;9.38;100.00;98997.22;4171184;28;20639;-54
2023/01/05 04:44:28;;;;;;;3.30;1.67;;;;;;;9.41;100.00;99004.97;4171628;28;20628;-55
2023/01/05 04:46:30;;;;;;;2.58;1.48;;;;;;;9.42;100.00;99009.34;4167398;28;20228;-52
2023/01/05 04:48:32;;;;;;;5.53;1.70;;;;;;;9.43;100.00;99005.56;4167106;28;20209;-53
2023/01/05 04:50:34;;;;;;;2.88;1.33;;;;;;;9.42;100.00;98999.25;4168848;28;20306;-52
2023/01/05 04:52:35;;;;;;;5.47;1.45;;;;;;;9.41;100.00;99002.22;4143787;28;20248;-55
2023/01/05 04:54:37;;;;;;;3.03;1.30;;;;;;;9.44;100.00;99013.53;4170288;28;20289;-52
2023/01/05 04:56:39;;;;;;;4.63;2.03;;;;;;;9.48;100.00;99002.97;4170147;28;20208;-52
2023/01/05 04:58:41;;;;;;;3.78;1.77;;;;;;;9.44;100.00;99008.06;4170392;28;20212;-53
2023/01/05 05:00:43;;;;;;;3.50;1.75;;;;;;;9.42;100.00;99009.34;4168816;28;20232;-52
2023/01/05 05:02:44;;;;;;;5.78;1.58;;;;;;;9.43;100.00;99008.28;4172002;28;20304;-52
2023/01/05 05:04:46;;;;;;;1.77;1.27;;;;;;;9.39;100.00;99007.91;4149548;28;20216;-52
2023/01/05 05:06:48;;;;;;;3.05;1.23;;;;;;;9.42;100.00;99007.44;4146311;28;20256;-54
2023/01/05 05:08:50;;;;;;;3.30;1.13;;;;;;;9.45;100.00;99008.88;4169323;28;20247;-54
2023/01/05 05:10:51;;;;;;;6.22;2.15;;;;;;;9.47;100.00;99014.94;4168085;28;21016;-54
2023/01/05 05:12:53;;;;;;;7.13;1.33;;;;;;;9.44;100.00;99007.22;4167341;28;20303;-53
2023/01/05 05:14:55;;;;;;;5.55;1.67;;;;;;;9.47;100.00;99017.66;4168747;28;21103;-52
2023/01/05 05:16:57;;;;;;;5.43;2.15;;;;;;;9.42;100.00;99023.81;4182138;28;20235;-54
2023/01/05 05:18:59;;;;;;;3.80;1.40;;;;;;;9.45;100.00;99030.72;4168063;28;20647;-54
2023/01/05 05:21:00;;;;;;;5.75;1.85;;;;;;;9.41;100.00;99029.53;4168539;28;20235;-56
2023/01/05 05:23:02;;;;;;;1.50;1.00;;;;;;;9.41;100.00;99035.00;4168677;28;20327;-53
2023/01/05 05:25:04;;;;;;;3.78;1.50;;;;;;;9.41;100.00;99032.28;4169382;28;20231;-52
2023/01/05 05:27:06;;;;;;;6.30;2.05;;;;;;;9.40;100.00;99038.78;4169744;28;20231;-52
2023/01/05 05:29:08;;;;;;;4.38;1.38;;;;;;;9.38;100.00;99040.91;4167502;28;20302;-52
2023/01/05 05:31:10;;;;;;;5.40;1.52;;;;;;;9.40;100.00;99042.34;4165237;28;20317;-53
2023/01/05 05:33:11;;;;;;;11.43;2.15;;;;;;;9.31;100.00;99041.00;4169091;28;20204;-53
2023/01/05 05:35:13;;;;;;;3.38;1.75;;;;;;;9.35;100.00;99049.56;4170201;28;20218;-52
2023/01/05 05:37:15;;;;;;;4.15;1.38;;;;;;;9.31;100.00;99045.63;4169769;28;20826;-52
2023/01/05 05:39:17;;;;;;;3.33;1.25;;;;;;;9.32;100.00;99039.09;4173207;28;20299;-54
2023/01/05 05:41:19;;;;;;;5.85;2.13;;;;;;;9.37;100.00;99044.72;4171772;28;20259;-52
2023/01/05 05:43:20;;;;;;;5.20;1.42;;;;;;;9.37;100.00;99044.72;4169346;28;20246;-53
2023/01/05 05:45:22;;;;;;;5.50;2.17;;;;;;;9.33;100.00;99048.94;4145834;28;20321;-53
2023/01/05 05:47:24;;;;;;;7.47;2.05;;;;;;;9.37;100.00;99052.91;4164641;28;20320;-54
2023/01/05 05:49:26;;;;;;;3.80;1.48;;;;;;;9.37;100.00;99051.03;4148224;28;20209;-55
2023/01/05 05:51:28;;;;;;;3.97;1.00;;;;;;;9.40;100.00;99049.69;4164284;28;20240;-54
2023/01/05 05:53:30;;;;;;;6.60;2.17;;;;;;;9.44;100.00;99050.91;4170075;28;20223;-53
2023/01/05 05:55:33;;;;;;;2.03;1.30;;;;;;;9.47;100.00;99055.91;4181547;28;20232;-53
2023/01/05 05:57:35;;;;;;;4.28;1.20;;;;;;;9.45;100.00;99058.88;4184385;28;20196;-53
2023/01/05 05:59:36;;;;;;;5.03;1.80;;;;;;;9.48;100.00;99068.53;4169361;28;20239;-53
2023/01/05 06:01:38;;;;;;;6.85;1.48;;;;;;;9.45;100.00;99068.97;4168138;28;20654;-53
2023/01/05 06:03:42;;;;;;;1.95;1.20;;;;;;;9.45;100.00;99060.78;4184495;28;20631;-54
2023/01/05 06:05:44;;;;;;;4.57;1.50;;;;;;;9.43;100.00;99074.66;4155081;28;20208;-53
2023/01/05 06:07:46;;;;;;;1.98;1.42;;;;;;;9.38;100.00;99079.16;4166852;28;20310;-53
2023/01/05 06:09:47;;;;;;;5.30;1.88;;;;;;;9.43;100.00;99087.50;4166801;28;20276;-53
2023/01/05 06:11:49;;;;;;;3.17;1.63;;;;;;;9.44;100.00;99087.28;4184175;28;20298;-53
2023/01/05 06:13:51;;;;;;;7.13;1.98;;;;;;;9.43;100.00;99087.50;4170824;28;20208;-53
2023/01/05 06:15:53;;;;;;;8.05;2.50;;;;;;;9.45;100.00;99085.34;4168391;28;20310;-55
2023/01/05 06:17:55;;;;;;;4.00;1.50;;;;;;;9.47;100.00;99088.69;4167156;28;20212;-52
2023/01/05 06:19:57;;;;;;;3.95;1.50;;;;;;;9.46;100.00;99079.69;4164815;28;20345;-52
2023/01/05 06:21:59;;;;;;;3.08;1.30;;;;;;;9.44;100.00;99072.78;4154594;28;20891;-54
2023/01/05 06:24:01;;;;;;;8.25;1.33;;;;;;;9.49;100.00;99081.13;4166947;28;20223;-53
2023/01/05 06:26:03;;;;;;;5.28;1.70;;;;;;;9.49;100.00;99079.19;4168440;28;20287;-54
2023/01/05 06:28:05;;;;;;;2.50;1.63;;;;;;;9.49;100.00;99092.03;4167142;28;20720;-53
2023/01/05 06:30:07;;;;;;;6.68;1.60;;;;;;;9.50;100.00;99099.19;4178956;28;20232;-54
2023/01/05 06:32:09;;;;;;;4.10;1.55;;;;;;;9.54;100.00;99100.41;4169051;28;20216;-53
2023/01/05 06:34:11;;;;;;;3.28;1.80;;;;;;;9.55;100.00;99113.00;4166548;28;20205;-54
2023/01/05 06:36:13;;;;;;;5.47;1.65;;;;;;;9.56;100.00;99110.00;4168396;28;20211;-53
2023/01/05 06:38:15;;;;;;;5.30;1.35;;;;;;;9.59;100.00;99114.19;4171347;28;20208;-54
2023/01/05 06:40:17;;;;;;;1.98;1.42;;;;;;;9.60;100.00;99107.66;4166057;28;20232;-55
2023/01/05 06:42:19;;;;;;;4.13;1.17;;;;;;;9.60;100.00;99121.31;4169640;28;20313;-54
2023/01/05 06:44:24;;;;;;;3.78;1.63;;;;;;;9.57;100.00;99128.09;4170480;28;20222;-53
2023/01/05 06:46:26;;;;;;;4.55;1.27;;;;;;;9.64;100.00;99111.59;4168006;28;20224;-53
2023/01/05 06:48:28;;;;;;;10.25;1.55;;;;;;;9.53;100.00;99121.41;4155214;28;20205;-53
2023/01/05 06:50:30;;;;;;;5.07;1.45;;;;;;;9.60;100.00;99121.31;4150802;28;20298;-53
2023/01/05 06:52:38;;;;;;;5.43;2.10;;;;;;;9.61;100.00;99117.53;4151556;28;20223;-53
2023/01/05 06:54:41;;;;;;;5.18;2.70;;;;;;;9.62;100.00;99130.13;4170209;28;20205;-53
2023/01/05 06:56:43;;;;;;;3.40;1.95;;;;;;;9.59;100.00;99120.50;4169294;28;20253;-53
2023/01/05 06:58:45;;;;;;;6.78;2.25;;;;;;;9.54;100.00;99123.06;4166758;28;20279;-53
2023/01/05 07:00:48;;;;;;;3.67;1.10;;;;;;;9.55;100.00;99123.91;4150576;28;20232;-54
2023/01/05 07:02:53;;;;;;;4.18;1.50;;;;;;;9.51;100.00;99119.97;4170051;28;20674;-55
2023/01/05 07:04:55;;;;;;;2.60;1.23;;;;;;;9.51;100.00;99122.69;4168694;28;20290;-53
2023/01/05 07:06:57;;;;;;;2.40;1.75;;;;;;;9.49;100.00;99122.09;4169922;28;20320;-53
2023/01/05 07:09:00;;;;;;;3.03;1.38;;;;;;;9.43;100.00;99129.28;4162949;28;20216;-54
2023/01/05 07:11:03;;;;;;;3.03;1.45;;;;;;;9.50;100.00;99126.50;4168122;28;20286;-52
2023/01/05 07:13:05;;;;;;;4.03;1.92;;;;;;;9.44;100.00;99116.47;4170577;28;20212;-52
2023/01/05 07:15:09;;;;;;;2.97;1.38;;;;;;;9.50;100.00;99115.56;4168879;28;20204;-54
2023/01/05 07:17:14;;;;;;;4.72;1.00;;;;;;;9.51;100.00;99128.16;4185691;28;20238;-54
2023/01/05 07:19:16;;;;;;;8.07;2.05;;;;;;;9.54;100.00;99130.44;4165145;28;20553;-53
2023/01/05 07:21:18;;;;;;;2.42;1.45;;;;;;;9.55;100.00;99134.84;4168050;28;20215;-54
2023/01/05 07:23:31;;;;;;;4.63;2.20;;;;;;;9.53;100.00;99131.47;4172870;28;20619;-53
2023/01/05 07:25:33;;;;;;;2.22;0.98;;;;;;;9.48;100.00;99128.63;4175882;28;20614;-54
2023/01/05 07:27:35;;;;;;;4.50;1.73;;;;;;;9.49;100.00;99130.28;4173562;28;20228;-54
2023/01/05 07:29:37;;;;;;;5.25;1.98;;;;;;;9.47;100.00;99137.84;4155521;28;20236;-54
2023/01/05 07:31:39;;;;;;;6.13;1.95;;;;;;;9.50;100.00;99134.69;4170047;28;20690;-53
2023/01/05 07:33:41;;;;;;;2.92;1.67;;;;;;;9.47;100.00;99132.41;4169240;28;20208;-54
2023/01/05 07:35:44;;;;;;;6.07;1.38;;;;;;;9.43;100.00;99142.13;4158560;28;20235;-54
2023/01/05 07:37:46;;;;;;;2.88;1.20;;;;;;;9.39;100.00;99135.44;4172226;28;20789;-53
2023/01/05 07:39:48;;;;;;;5.10;1.52;;;;;;;9.43;100.00;99126.56;4170784;28;20228;-54
2023/01/05 07:41:50;;;;;;;9.43;2.45;;;;;;;9.43;100.00;99137.47;4174598;28;20214;-53
2023/01/05 07:43:56;;;;;;;2.70;1.90;;;;;;;9.45;100.00;99140.00;4170335;28;20261;-53
2023/01/05 07:45:59;;;;;;;2.63;1.77;;;;;;;9.49;100.00;99135.75;4175640;28;20684;-54
2023/01/05 07:48:02;;;;;;;3.05;1.70;;;;;;;9.55;100.00;99132.94;4173545;28;20246;-53
2023/01/05 07:50:04;;;;;;;3.88;1.75;;;;;;;9.52;100.00;99140.75;4171099;28;20232;-54
2023/01/05 07:52:07;;;;;;;6.85;2.30;;;;;;;9.55;100.00;99145.78;4168184;28;20216;-53
2023/01/05 07:54:10;;;;;;;4.00;2.10;;;;;;;9.53;100.00;99145.16;4170776;28;20211;-53
2023/01/05 07:56:12;;;;;;;4.25;1.35;;;;;;;9.55;100.00;99153.97;4170606;28;20230;-52
2023/01/05 07:58:19;;;;;;;2.00;1.77;;;;;;;9.60;100.00;99143.16;4172006;28;20205;-53
2023/01/05 08:00:27;;;;;;;3.25;1.70;;;;;;;9.66;100.00;99154.03;4169496;28;20223;-53
2023/01/05 08:02:33;;;;;;;3.13;1.35;;;;;;;9.63;100.00;99159.13;4170422;28;20918;-54
2023/01/05 08:04:37;;;;;;;7.07;2.78;;;;;;;9.63;100.00;99170.88;4174096;28;20200;-54
2023/01/05 08:06:39;;;;;;;2.30;1.35;;;;;;;9.64;100.00;99174.44;4172209;28;20250;-55
2023/01/05 08:08:44;;;;;;;6.32;1.83;;;;;;;9.63;100.00;99179.06;4171624;28;20214;-54
2023/01/05 08:10:46;;;;;;;9.55;2.25;;;;;;;9.64;100.00;99179.91;4168336;28;20251;-53
2023/01/05 08:15:28;;;;;;;4.60;1.15;;;;;;;9.68;100.00;99183.88;4169164;28;20496;-53
2023/01/05 08:17:30;;;;;;;3.30;1.92;;;;;;;9.69;100.00;99186.34;4169459;28;20298;-53
2023/01/05 08:19:32;;;;;;;10.30;1.90;;;;;;;9.67;100.00;99182.22;4168239;28;20204;-52
2023/01/05 08:21:34;;;;;;;4.03;1.92;;;;;;;9.68;100.00;99184.69;4168342;28;20205;-54
2023/01/05 08:23:45;;;;;;;3.60;2.30;;;;;;;9.64;100.00;99190.84;4172485;28;20303;-55
2023/01/05 08:25:50;;;;;;;5.32;1.88;;;;;;;9.70;100.00;99195.41;4171279;28;20215;-54
2023/01/05 08:27:52;;;;;;;1.95;1.45;;;;;;;9.66;100.00;99196.91;4169455;28;20227;-54
2023/01/05 08:29:53;;;;;;;11.65;2.38;;;;;;;9.66;100.00;99199.63;4169898;28;21031;-52
2023/01/05 08:31:55;;;;;;;2.92;1.40;;;;;;;9.70;100.00;99192.66;4167534;28;20298;-53
2023/01/05 08:33:58;;;;;;;5.30;2.08;;;;;;;9.71;100.00;99203.38;4164485;28;20216;-54
2023/01/05 08:36:01;;;;;;;5.20;1.75;;;;;;;9.72;100.00;99209.66;4159772;28;20216;-54
2023/01/05 08:38:02;;;;;;;3.78;1.65;;;;;;;9.78;100.00;99200.56;4168095;28;20303;-54
2023/01/05 08:40:05;;;;;;;6.65;2.30;;;;;;;9.73;100.00;99205.88;4165628;28;20860;-54
2023/01/05 08:42:07;;;;;;;3.35;2.33;;;;;;;9.78;100.00;99212.34;4169497;28;20220;-54
2023/01/05 08:44:13;;;;;;;1.65;1.00;;;;;;;9.80;100.00;99215.66;4168513;28;20762;-53
2023/01/05 08:46:15;;;;;;;5.22;1.50;;;;;;;9.85;100.00;99209.50;4167130;28;20216;-55
2023/01/05 08:48:17;;;;;;;3.33;1.45;;;;;;;9.87;100.00;99215.59;4168699;28;20227;-53
2023/01/05 08:50:19;;;;;;;2.90;1.00;;;;;;;9.87;100.00;99218.34;4166157;28;20812;-52
2023/01/05 08:52:22;;;;;;;4.80;1.35;;;;;;;9.88;100.00;99212.63;4170297;28;20207;-53
2023/01/05 08:54:24;;;;;;;5.00;2.05;;;;;;;9.88;100.00;99211.81;4164692;28;21215;-53
2023/01/05 08:56:26;;;;;;;3.28;1.67;;;;;;;9.88;100.00;99207.16;4172331;28;20219;-52
2023/01/05 08:58:36;;;;;;;6.45;2.13;;;;;;;9.86;100.00;99219.38;4159451;28;20814;-54
2023/01/05 09:00:38;;;;;;;3.13;1.45;;;;;;;9.87;100.00;99221.06;4169806;28;20270;-53
2023/01/05 09:02:40;;;;;;;9.52;2.80;;;;;;;9.90;100.00;99220.59;4169310;28;20204;-53
2023/01/05 09:04:42;;;;;;;5.05;1.33;;;;;;;9.88;100.00;99228.22;4170743;28;20303;-54
2023/01/05 09:06:44;;;;;;;4.50;2.08;;;;;;;9.90;100.00;99217.88;4173886;28;20208;-53
2023/01/05 09:08:47;;;;;;;6.88;1.98;;;;;;;9.89;100.00;99227.13;4155311;28;20229;-52
2023/01/05 09:10:49;;;;;;;2.38;2.05;;;;;;;9.98;100.00;99226.59;4170249;28;20263;-54
2023/01/05 09:12:50;;;;;;;5.68;1.88;;;;;;;9.98;100.00;99223.03;4169122;28;20220;-53
2023/01/05 09:14:53;;;;;;;5.50;2.80;;;;;;;9.96;100.00;99233.38;4171612;28;20203;-52
2023/01/05 09:16:55;;;;;;;1.73;1.58;;;;;;;9.98;100.00;99233.97;4171220;28;20204;-53
2023/01/05 09:19:15;;;;;;;6.47;1.70;;;;;;;9.93;100.00;99220.13;4171947;28;20210;-53
2023/01/05 09:21:20;;;;;;;4.60;1.65;;;;;;;9.95;100.00;99218.84;4169926;28;20894;-54
2023/01/05 09:23:24;;;;;;;3.65;1.70;;;;;;;9.92;100.00;99241.19;4170731;28;20689;-53
2023/01/05 09:25:25;;;;;;;4.07;2.28;;;;;;;9.89;100.00;99236.16;4174371;28;20296;-55
2023/01/05 09:27:27;;;;;;;5.80;1.98;;;;;;;9.92;100.00;99240.34;4176343;28;20261;-54
2023/01/05 09:29:31;;;;;;;2.75;1.67;;;;;;;9.94;100.00;99243.69;4168429;28;20573;-52
2023/01/05 09:31:42;;;;;;;2.10;1.85;;;;;;;9.91;100.00;99244.13;4172481;28;20208;-54
2023/01/05 09:33:44;;;;;;;4.30;1.55;;;;;;;9.98;100.00;99250.38;4172037;28;20251;-54
2023/01/05 09:35:55;;;;;;;4.95;1.25;;;;;;;9.93;100.00;99252.94;4171018;28;20220;-54
2023/01/05 09:37:57;;;;;;;5.75;1.40;;;;;;;9.93;100.00;99252.94;4155097;28;20705;-53
2023/01/05 09:39:59;;;;;;;1.98;1.45;;;;;;;9.92;100.00;99254.00;4169017;28;20237;-53
2023/01/05 09:42:04;;;;;;;5.07;1.92;;;;;;;10.00;100.00;99259.16;4170194;28;20220;-55
2023/01/05 09:44:26;;;;;;;5.40;2.42;;;;;;;9.98;100.00;99261.31;4168130;28;20208;-53
2023/01/05 09:46:32;;;;;;;4.38;3.08;;;;;;;10.04;100.00;99265.88;4184410;28;20207;-55
2023/01/05 09:48:40;;;;;;;4.07;2.13;;;;;;;10.10;100.00;99264.97;4169270;28;20236;-53
2023/01/05 09:50:42;;;;;;;15.40;2.80;;;;;;;10.11;100.00;99263.91;4173056;28;20227;-54
2023/01/05 09:52:44;;;;;;;3.75;1.90;;;;;;;10.16;100.00;99264.88;4170925;28;20299;-54
2023/01/05 09:54:46;;;;;;;3.85;1.92;;;;;;;10.23;100.00;99259.34;4170582;28;20211;-52
2023/01/05 09:56:48;;;;;;;5.35;1.95;;;;;;;10.19;100.00;99266.34;4167783;28;20650;-54
2023/01/05 09:59:14;;;;;;;5.80;2.05;;;;;;;10.21;100.00;99261.50;4157072;28;20219;-53
2023/01/05 10:01:16;;;;;;;5.47;2.38;;;;;;;10.19;100.00;99269.06;4167739;28;20231;-54
2023/01/05 10:03:20;;;;;;;5.85;1.38;;;;;;;10.18;100.00;99267.41;4149060;28;20316;-53
2023/01/05 10:05:43;;;;;;;3.35;1.50;;;;;;;10.16;100.00;99272.28;4153743;28;20208;-54
2023/01/05 10:08:03;;;;;;;25.15;14.93;;;;;;;10.21;100.00;99267.78;4170562;28;20598;-52
2023/01/05 10:10:23;;;;;;;13.70;8.20;;;;;;;10.28;100.00;99262.25;4163656;28;20594;-53
2023/01/05 10:15:10;;;;;;;4.90;2.70;;;;;;;10.25;100.00;99260.78;4166831;28;20212;-54
2023/01/05 10:17:18;;;;;;;3.15;2.03;;;;;;;10.24;100.00;99263.75;4166398;28;20330;-53